Time;durP1;ratioP1;P1;durP2;ratioP2;P2;SDS_P1;SDS_P2;PMS_P1;PMS_P2;Temp;Humidity;BMP_temperature;BMP_pressure;BME280_temperature;BME280_humidity;BME280_pressure;Samples;Min_cycle;Max_cycle;Signal;HPM_P1;HPM_P2
2022/08/25 00:00:59;;;;;;;4.78;2.20;;;27.20;54.00;;;;;;10071395;28;20044;-66
2022/08/25 00:05:50;;;;;;;2.30;1.75;;;27.00;54.20;;;;;;10054827;28;20192;-66
2022/08/25 00:10:41;;;;;;;2.90;1.88;;;27.00;54.50;;;;;;10057357;28;20129;-66
2022/08/25 00:15:32;;;;;;;3.83;1.88;;;26.90;54.70;;;;;;10059663;28;20097;-66
2022/08/25 00:20:24;;;;;;;4.03;2.10;;;26.90;54.50;;;;;;10049293;28;20472;-67
2022/08/25 00:25:15;;;;;;;5.25;1.70;;;26.70;54.80;;;;;;10056607;28;20068;-66
2022/08/25 00:30:06;;;;;;;2.83;1.70;;;26.70;54.90;;;;;;10056898;28;20060;-66
2022/08/25 00:34:57;;;;;;;3.40;2.20;;;26.70;54.80;;;;;;10029905;28;20025;-66
2022/08/25 00:39:48;;;;;;;4.35;1.85;;;26.60;54.90;;;;;;10064838;28;20500;-66
2022/08/25 00:44:38;;;;;;;3.70;1.92;;;26.40;55.20;;;;;;10063934;28;20025;-66
2022/08/25 00:49:35;;;;;;;2.10;1.70;;;26.30;55.20;;;;;;10061932;28;20847;-66
2022/08/25 00:54:30;;;;;;;2.63;2.40;;;26.10;55.60;;;;;;10056149;28;20013;-65
2022/08/25 00:59:23;;;;;;;2.58;1.88;;;25.90;55.80;;;;;;10057275;28;20120;-66
2022/08/25 01:04:14;;;;;;;5.00;2.40;;;25.90;56.00;;;;;;10052625;28;20537;-66
2022/08/25 01:09:06;;;;;;;6.05;2.10;;;25.80;56.00;;;;;;10060437;28;20442;-66
2022/08/25 01:14:01;;;;;;;2.58;2.05;;;25.90;56.10;;;;;;10056955;28;20495;-66
2022/08/25 01:18:55;;;;;;;2.08;1.77;;;25.80;56.30;;;;;;10053469;28;20041;-66
2022/08/25 01:23:48;;;;;;;2.53;1.80;;;25.80;56.50;;;;;;10038539;28;20518;-66
2022/08/25 01:29:19;;;;;;;3.65;3.22;;;25.60;57.00;;;;;;10062656;28;20049;-66
2022/08/25 01:33:51;;;;;;;2.15;1.95;;;25.60;56.90;;;;;;10061923;28;20029;-67
2022/08/25 01:38:41;;;;;;;2.47;2.28;;;25.80;56.90;;;;;;10069743;28;20396;-66
2022/08/25 01:43:37;;;;;;;4.15;1.80;;;25.60;57.10;;;;;;10035132;28;20036;-66
2022/08/25 01:48:27;;;;;;;1.98;1.83;;;25.50;57.60;;;;;;10054016;28;20120;-66
2022/08/25 01:53:25;;;;;;;3.00;2.10;;;25.60;57.50;;;;;;10054952;28;20117;-66
2022/08/25 01:58:25;;;;;;;3.13;2.03;;;25.60;58.30;;;;;;10029116;28;20034;-66
2022/08/25 02:03:18;;;;;;;3.63;1.90;;;25.50;57.80;;;;;;10054397;28;20057;-66
2022/08/25 02:08:10;;;;;;;2.83;2.03;;;25.40;58.00;;;;;;10059005;28;20041;-66
2022/08/25 02:13:01;;;;;;;3.25;1.85;;;25.40;58.30;;;;;;10054228;28;20055;-66
2022/08/25 02:17:51;;;;;;;2.28;1.75;;;25.30;58.70;;;;;;10055833;28;20029;-66
2022/08/25 02:22:42;;;;;;;3.00;2.70;;;25.10;59.00;;;;;;10053750;28;20037;-65
2022/08/25 02:27:34;;;;;;;7.60;2.90;;;24.80;59.70;;;;;;10072290;28;20049;-66
2022/08/25 02:32:24;;;;;;;3.45;2.33;;;24.70;60.20;;;;;;10068011;28;20030;-66
2022/08/25 02:37:15;;;;;;;2.95;1.95;;;24.70;60.10;;;;;;10075178;28;20017;-65
2022/08/25 02:42:06;;;;;;;2.95;2.05;;;24.90;60.00;;;;;;10058871;28;20099;-66
2022/08/25 02:46:57;;;;;;;5.15;1.98;;;24.70;60.40;;;;;;10063751;28;20082;-67
2022/08/25 02:51:48;;;;;;;3.85;2.40;;;24.60;60.50;;;;;;10057239;28;20020;-66
2022/08/25 02:56:40;;;;;;;2.33;2.13;;;24.40;61.10;;;;;;10042610;28;20036;-66
2022/08/25 03:01:31;;;;;;;4.25;1.98;;;24.30;61.50;;;;;;10062652;28;20033;-68
2022/08/25 03:06:23;;;;;;;4.20;2.22;;;24.30;61.50;;;;;;10046981;28;20084;-68
2022/08/25 03:11:13;;;;;;;5.05;2.92;;;24.30;61.80;;;;;;10060721;28;20044;-67
2022/08/25 03:16:05;;;;;;;2.60;1.92;;;24.20;62.00;;;;;;10041892;28;20534;-66
2022/08/25 03:20:57;;;;;;;3.67;2.08;;;24.20;62.00;;;;;;10046079;28;20030;-67
2022/08/25 03:30:59;;;;;;;8.82;3.88;;;23.80;63.30;;;;;;10071463;28;20115;-66
2022/08/25 03:35:50;;;;;;;3.38;2.30;;;23.70;63.90;;;;;;10068173;28;20061;-66
2022/08/25 03:40:41;;;;;;;3.47;2.60;;;23.70;63.80;;;;;;10075241;28;20400;-66
2022/08/25 03:45:31;;;;;;;4.00;2.20;;;23.70;64.00;;;;;;10069563;28;20518;-66
2022/08/25 03:50:23;;;;;;;3.55;2.40;;;23.80;63.90;;;;;;10069592;28;20061;-67
2022/08/25 03:55:13;;;;;;;3.03;2.20;;;23.80;64.10;;;;;;10062956;28;20021;-66
2022/08/25 04:00:07;;;;;;;3.95;2.00;;;23.70;64.50;;;;;;10060534;28;20052;-66
2022/08/25 04:04:58;;;;;;;4.50;2.22;;;23.70;64.60;;;;;;10067222;28;20369;-66
2022/08/25 04:09:49;;;;;;;2.92;2.13;;;23.80;64.60;;;;;;10066788;28;20037;-66
2022/08/25 04:14:40;;;;;;;4.72;2.05;;;23.70;64.80;;;;;;10068294;28;20020;-65
2022/08/25 04:19:30;;;;;;;2.92;1.88;;;23.70;64.80;;;;;;10051447;28;20342;-67
2022/08/25 04:24:21;;;;;;;4.10;1.80;;;23.50;65.70;;;;;;10071076;28;20040;-67
2022/08/25 04:29:14;;;;;;;2.85;2.15;;;23.30;66.30;;;;;;10057524;28;20574;-67
2022/08/25 04:34:06;;;;;;;4.63;2.30;;;23.30;66.50;;;;;;10054246;28;20064;-66
2022/08/25 04:38:57;;;;;;;3.00;2.35;;;23.30;66.70;;;;;;10065716;28;20036;-66
2022/08/25 04:43:48;;;;;;;3.30;2.17;;;23.20;66.90;;;;;;10047213;28;20029;-67
2022/08/25 04:48:39;;;;;;;3.00;2.13;;;23.20;67.00;;;;;;10058936;28;20026;-66
2022/08/25 04:53:30;;;;;;;4.78;2.13;;;23.30;67.20;;;;;;10058135;28;20021;-66
2022/08/25 04:58:21;;;;;;;3.90;2.30;;;23.10;67.40;;;;;;10057585;28;20440;-67
2022/08/25 05:03:13;;;;;;;6.15;2.13;;;23.20;67.40;;;;;;10052808;28;20076;-66
2022/08/25 05:08:06;;;;;;;13.68;4.60;;;23.20;67.70;;;;;;10061309;28;20488;-66
2022/08/25 05:12:57;;;;;;;4.35;1.95;;;23.20;67.80;;;;;;10059077;28;20026;-67
2022/08/25 05:17:47;;;;;;;2.72;2.45;;;23.20;68.00;;;;;;10058665;28;20037;-66
2022/08/25 05:22:38;;;;;;;3.28;2.47;;;23.00;68.60;;;;;;10055299;28;20040;-68
2022/08/25 05:27:28;;;;;;;2.75;2.17;;;22.80;69.10;;;;;;10048025;28;20412;-65
2022/08/25 05:32:19;;;;;;;2.40;2.13;;;22.80;69.50;;;;;;10038221;28;20025;-66
2022/08/25 05:37:09;;;;;;;2.72;2.30;;;22.90;69.30;;;;;;10061684;28;20029;-65
2022/08/25 05:42:00;;;;;;;4.38;2.42;;;22.80;70.00;;;;;;10059884;28;20037;-65
2022/08/25 05:46:51;;;;;;;3.00;2.20;;;22.90;69.90;;;;;;10054555;28;20029;-65
2022/08/25 05:51:41;;;;;;;5.97;2.80;;;23.10;69.60;;;;;;10056246;28;20037;-65
2022/08/25 05:56:32;;;;;;;6.55;3.90;;;23.10;69.90;;;;;;10052462;28;20455;-66
2022/08/25 06:06:38;;;;;;;3.00;2.35;;;23.00;70.50;;;;;;10039381;28;20055;-65
2022/08/25 06:11:29;;;;;;;2.80;2.15;;;23.10;70.20;;;;;;10051651;28;20033;-65
2022/08/25 06:16:20;;;;;;;3.95;2.83;;;23.00;70.70;;;;;;10062996;28;20040;-65
2022/08/25 06:21:12;;;;;;;2.78;2.00;;;23.00;71.10;;;;;;10053039;28;20314;-65
2022/08/25 06:26:03;;;;;;;3.45;2.33;;;23.10;71.00;;;;;;10053289;28;20021;-65
2022/08/25 06:30:59;;;;;;;4.47;2.30;;;23.20;71.00;;;;;;10052891;28;20060;-65
2022/08/25 06:35:54;;;;;;;3.15;2.50;;;23.20;71.10;;;;;;10052571;28;20072;-65
2022/08/25 06:40:49;;;;;;;7.30;2.10;;;23.30;71.30;;;;;;10054647;28;20033;-66
2022/08/25 06:45:42;;;;;;;3.03;2.30;;;23.50;71.10;;;;;;10058359;28;20042;-65
2022/08/25 06:50:33;;;;;;;2.35;2.15;;;23.60;70.90;;;;;;10052128;28;20068;-66
2022/08/25 06:55:24;;;;;;;3.03;2.55;;;23.90;70.70;;;;;;10052350;28;20029;-66
2022/08/25 07:00:16;;;;;;;6.00;2.90;;;23.90;70.70;;;;;;10061178;28;20029;-66
2022/08/25 07:05:07;;;;;;;3.22;2.08;;;24.00;70.80;;;;;;10049421;28;20512;-65
2022/08/25 07:09:57;;;;;;;4.13;2.38;;;24.20;70.60;;;;;;10061185;28;20120;-66
2022/08/25 07:14:48;;;;;;;4.90;2.60;;;24.10;70.90;;;;;;10057915;28;20036;-66
2022/08/25 07:19:39;;;;;;;5.18;2.20;;;24.10;71.20;;;;;;10051320;28;20026;-67
2022/08/25 07:24:29;;;;;;;4.00;2.08;;;24.10;71.60;;;;;;10051120;28;20484;-65
2022/08/25 07:29:24;;;;;;;3.67;2.28;;;24.10;71.80;;;;;;10051358;28;20663;-65
2022/08/25 07:39:26;;;;;;;2.70;2.05;;;24.40;71.40;;;;;;10052742;28;20333;-65
2022/08/25 07:44:17;;;;;;;5.20;2.75;;;24.50;71.80;;;;;;10058041;28;20021;-66
2022/08/25 07:49:07;;;;;;;5.00;2.38;;;24.60;71.40;;;;;;10055475;28;20072;-66
2022/08/25 07:53:58;;;;;;;3.05;2.30;;;24.90;71.20;;;;;;10033662;28;20029;-65
2022/08/25 07:58:49;;;;;;;3.47;2.50;;;25.00;71.10;;;;;;10064620;28;20428;-66
2022/08/25 08:03:40;;;;;;;4.95;2.38;;;25.20;70.90;;;;;;10062054;28;20037;-65
2022/08/25 08:08:30;;;;;;;3.33;2.60;;;25.40;70.70;;;;;;10048880;28;20087;-66
2022/08/25 08:13:22;;;;;;;6.05;3.22;;;25.50;70.50;;;;;;10061715;28;20029;-65
2022/08/25 08:18:13;;;;;;;3.25;2.65;;;25.40;70.80;;;;;;10057532;28;20435;-65
2022/08/25 08:23:04;;;;;;;8.23;3.40;;;25.60;70.70;;;;;;10061479;28;20017;-64
2022/08/25 08:27:55;;;;;;;3.88;2.25;;;25.70;70.70;;;;;;10064796;28;20053;-65
2022/08/25 08:32:48;;;;;;;4.20;2.05;;;25.70;70.80;;;;;;10067344;28;20066;-65
2022/08/25 08:37:40;;;;;;;2.35;1.95;;;26.00;70.50;;;;;;10064275;28;20063;-65
2022/08/25 08:42:51;;;;;;;4.15;2.10;;;26.00;70.60;;;;;;10063517;28;20026;-66
2022/08/25 08:48:00;;;;;;;5.55;2.20;;;26.20;70.20;;;;;;10055418;28;20120;-65
2022/08/25 08:53:01;;;;;;;1.80;1.58;;;26.40;69.90;;;;;;10056558;28;20022;-65
2022/08/25 08:57:54;;;;;;;2.65;2.05;;;26.50;69.90;;;;;;10050804;28;20057;-66
2022/08/25 09:03:05;;;;;;;6.22;2.53;;;26.50;69.70;;;;;;10054598;28;20490;-66
2022/08/25 09:08:02;;;;;;;1.88;1.70;;;26.70;69.40;;;;;;10053633;28;20500;-64
2022/08/25 09:13:04;;;;;;;4.32;2.05;;;26.80;69.10;;;;;;10069846;28;20479;-65
2022/08/25 09:18:00;;;;;;;1.65;1.45;;;27.00;68.80;;;;;;10057489;28;20052;-67
2022/08/25 09:23:03;;;;;;;2.25;1.77;;;27.10;68.60;;;;;;10055900;28;20179;-66
2022/08/25 09:28:07;;;;;;;1.80;1.63;;;27.30;68.10;;;;;;10054409;28;20683;-67
2022/08/25 09:33:03;;;;;;;3.53;1.75;;;27.40;67.90;;;;;;10056033;28;20010;-67
2022/08/25 09:38:02;;;;;;;3.67;1.75;;;27.50;67.60;;;;;;10062070;28;20499;-65
2022/08/25 09:42:56;;;;;;;3.20;1.70;;;27.60;67.40;;;;;;10062046;28;20029;-66
2022/08/25 09:47:47;;;;;;;;;;;27.60;67.10;;;;;;10048457;28;20523;-65
2022/08/25 09:52:38;;;;;;;5.07;2.28;;;27.70;66.80;;;;;;10057335;28;19924;-66
2022/08/25 09:57:32;;;;;;;1.83;1.50;;;27.80;66.60;;;;;;10056254;28;20026;-66
2022/08/25 10:02:28;;;;;;;2.40;1.77;;;28.00;66.10;;;;;;10066591;28;20033;-67
2022/08/25 10:07:31;;;;;;;3.00;1.90;;;28.10;65.90;;;;;;10055276;28;20037;-66
2022/08/25 10:12:43;;;;;;;2.85;1.70;;;28.10;65.70;;;;;;10054984;28;20043;-66
2022/08/25 10:17:33;;;;;;;4.18;2.05;;;28.20;65.80;;;;;;10047046;28;20525;-65
2022/08/25 10:22:33;;;;;;;2.40;1.65;;;28.30;64.90;;;;;;10048620;28;20053;-66
2022/08/25 10:27:59;;;;;;;1.98;1.70;;;28.50;64.60;;;;;;10040916;28;20194;-66
2022/08/25 10:32:58;;;;;;;2.58;1.73;;;28.50;64.20;;;;;;10034705;28;20127;-66
2022/08/25 10:38:10;;;;;;;2.30;1.80;;;28.60;64.20;;;;;;10057818;28;20032;-65
2022/08/25 10:43:16;;;;;;;3.25;2.22;;;28.60;63.90;;;;;;10047601;28;20036;-65
2022/08/25 10:48:44;;;;;;;2.72;1.80;;;28.70;63.70;;;;;;10052376;28;20550;-66
2022/08/25 10:53:54;;;;;;;2.58;1.83;;;28.70;63.30;;;;;;10043633;28;20014;-66
2022/08/25 10:59:27;;;;;;;2.05;1.85;;;28.90;63.20;;;;;;10055625;28;20028;-66
2022/08/25 11:04:39;;;;;;;2.30;1.58;;;28.90;62.80;;;;;;10045502;28;20185;-66
2022/08/25 11:09:46;;;;;;;4.50;2.67;;;29.10;62.60;;;;;;10049515;28;20047;-67
2022/08/25 11:15:00;;;;;;;3.53;2.10;;;29.30;62.30;;;;;;10061762;28;20064;-65
2022/08/25 11:19:57;;;;;;;3.28;2.35;;;29.40;62.00;;;;;;10052033;28;20071;-66
2022/08/25 11:25:12;;;;;;;2.13;1.63;;;29.40;62.00;;;;;;10050775;28;20030;-65
2022/08/25 11:30:08;;;;;;;2.60;1.75;;;29.40;61.90;;;;;;10051593;28;20095;-65
2022/08/25 11:35:03;;;;;;;2.08;1.60;;;29.40;61.70;;;;;;10050957;28;20401;-66
2022/08/25 11:40:25;;;;;;;2.67;2.00;;;29.50;61.40;;;;;;10060163;28;20071;-66
2022/08/25 11:45:34;;;;;;;4.43;2.20;;;29.70;60.90;;;;;;10060975;28;20025;-66
2022/08/25 11:50:33;;;;;;;3.45;2.40;;;29.80;60.40;;;;;;10067054;28;20038;-65
2022/08/25 11:55:36;;;;;;;4.30;2.05;;;29.70;60.70;;;;;;10061741;28;20384;-68
2022/08/25 12:00:42;;;;;;;2.20;1.88;;;29.80;60.50;;;;;;10061936;28;20029;-66
2022/08/25 12:06:13;;;;;;;2.63;1.90;;;29.90;60.00;;;;;;10075462;28;20021;-66
2022/08/25 12:11:08;;;;;;;3.97;1.63;;;29.90;59.90;;;;;;10047550;28;20033;-66
2022/08/25 12:15:59;;;;;;;3.67;1.90;;;30.30;59.50;;;;;;10061382;28;20037;-65
2022/08/25 12:20:53;;;;;;;1.88;1.67;;;30.80;58.90;;;;;;10057672;28;20034;-66
2022/08/25 12:25:49;;;;;;;2.35;2.03;;;30.80;58.80;;;;;;10070093;28;20476;-65
2022/08/25 12:30:48;;;;;;;2.20;1.98;;;31.00;58.80;;;;;;10063335;28;20057;-67
2022/08/25 12:35:50;;;;;;;1.98;1.73;;;31.30;58.40;;;;;;10056971;28;20022;-65
2022/08/25 12:40:44;;;;;;;3.25;1.92;;;31.50;58.20;;;;;;10064917;28;20039;-66
2022/08/25 12:45:41;;;;;;;3.90;1.95;;;31.80;58.10;;;;;;10068612;28;20017;-66
2022/08/25 12:50:41;;;;;;;1.80;1.70;;;32.60;57.60;;;;;;10056198;28;20423;-66
2022/08/25 12:55:33;;;;;;;2.78;2.03;;;33.10;56.60;;;;;;10057563;28;20051;-66
2022/08/25 13:00:51;;;;;;;2.40;1.97;;;33.00;57.40;;;;;;10062405;28;20084;-65
2022/08/25 13:06:04;;;;;;;2.83;2.42;;;33.50;57.10;;;;;;10016197;28;20039;-65
2022/08/25 13:11:03;;;;;;;2.47;1.88;;;34.40;56.10;;;;;;10054929;28;20045;-65
2022/08/25 13:16:07;;;;;;;2.58;1.98;;;35.00;55.90;;;;;;10061222;28;20159;-66
2022/08/25 13:21:13;;;;;;;5.95;2.25;;;35.70;54.60;;;;;;10046670;28;20018;-65
2022/08/25 13:26:04;;;;;;;2.50;2.28;;;36.40;53.40;;;;;;10053728;28;20029;-65
2022/08/25 13:31:16;;;;;;;4.15;2.35;;;36.90;52.30;;;;;;10055780;28;20096;-65
2022/08/25 13:41:25;;;;;;;3.38;2.20;;;38.30;49.50;;;;;;10059296;28;20084;-65
2022/08/25 13:46:22;;;;;;;2.92;1.92;;;39.30;48.10;;;;;;10058927;28;20029;-65
2022/08/25 13:51:25;;;;;;;3.05;2.08;;;39.80;47.10;;;;;;10051430;28;20037;-65
2022/08/25 13:56:28;;;;;;;1.92;1.70;;;40.60;45.80;;;;;;10053172;28;20480;-65
2022/08/25 14:01:23;;;;;;;1.92;1.75;;;40.80;45.00;;;;;;10060489;28;20132;-66
2022/08/25 14:06:13;;;;;;;3.47;2.28;;;40.50;45.00;;;;;;10059765;28;20029;-65
2022/08/25 14:11:08;;;;;;;2.97;1.95;;;40.90;44.40;;;;;;10054813;28;20033;-65
2022/08/25 14:16:26;;;;;;;2.33;2.00;;;40.80;43.70;;;;;;10057811;28;20036;-65
2022/08/25 14:21:19;;;;;;;2.30;1.90;;;41.00;42.80;;;;;;10051410;28;20750;-66
2022/08/25 14:26:10;;;;;;;1.98;1.85;;;40.80;43.40;;;;;;10066043;28;20087;-64
2022/08/25 14:31:08;;;;;;;2.78;2.13;;;40.80;42.50;;;;;;10053502;28;20499;-64
2022/08/25 14:36:03;;;;;;;1.90;1.80;;;40.70;41.90;;;;;;10039909;28;20017;-65
2022/08/25 14:40:54;;;;;;;2.28;1.92;;;41.00;41.40;;;;;;10060435;28;20029;-65
2022/08/25 14:45:47;;;;;;;2.17;1.95;;;41.30;40.90;;;;;;10052877;28;20018;-64
2022/08/25 14:50:39;;;;;;;4.05;2.00;;;40.90;40.60;;;;;;10054855;28;20132;-65
2022/08/25 14:55:30;;;;;;;2.45;1.50;;;41.20;40.20;;;;;;10052189;28;20021;-64
2022/08/25 15:00:21;;;;;;;2.20;1.67;;;41.40;39.40;;;;;;10065587;28;20488;-65
2022/08/25 15:05:15;;;;;;;2.83;2.00;;;41.80;38.90;;;;;;10052536;28;20060;-66
2022/08/25 15:10:07;;;;;;;2.58;2.30;;;41.80;38.50;;;;;;10060536;28;20029;-64
2022/08/25 15:14:57;;;;;;;2.42;1.88;;;41.90;38.20;;;;;;10060069;28;20558;-65
2022/08/25 15:19:48;;;;;;;3.05;2.20;;;42.40;37.70;;;;;;10051151;28;20025;-66
2022/08/25 15:24:39;;;;;;;2.55;1.67;;;42.90;37.30;;;;;;10051749;28;20018;-65
2022/08/25 15:29:33;;;;;;;2.50;1.83;;;43.40;36.80;;;;;;10052268;28;20045;-66
2022/08/25 15:34:24;;;;;;;1.70;1.60;;;44.20;36.30;;;;;;10054438;28;20033;-65
2022/08/25 15:39:15;;;;;;;2.22;2.03;;;44.80;35.80;;;;;;10059125;28;20507;-65
2022/08/25 15:44:06;;;;;;;3.00;2.20;;;46.00;35.50;;;;;;10057843;28;20034;-65
2022/08/25 15:48:58;;;;;;;2.13;1.92;;;46.30;35.20;;;;;;10059983;28;20558;-65
2022/08/25 15:53:49;;;;;;;3.45;2.30;;;45.70;35.30;;;;;;10056684;28;20407;-66
2022/08/25 15:58:39;;;;;;;2.10;1.70;;;46.10;34.80;;;;;;10055492;28;20029;-66
2022/08/25 16:03:30;;;;;;;3.30;2.33;;;46.90;34.20;;;;;;10049698;28;20029;-66
2022/08/25 16:08:20;;;;;;;2.88;1.95;;;46.40;34.20;;;;;;10044188;28;20045;-67
2022/08/25 16:13:11;;;;;;;3.67;2.45;;;46.00;34.20;;;;;;10067496;28;20451;-66
2022/08/25 16:18:03;;;;;;;3.63;2.78;;;47.10;33.70;;;;;;10051594;28;20095;-66
2022/08/25 16:22:54;;;;;;;3.50;2.33;;;46.90;33.50;;;;;;10051955;28;20357;-66
2022/08/25 16:27:45;;;;;;;2.55;1.75;;;47.60;32.90;;;;;;10065656;28;20061;-65
2022/08/25 16:32:38;;;;;;;1.60;1.50;;;47.70;32.80;;;;;;10089918;28;20032;-66
2022/08/25 16:37:30;;;;;;;2.60;2.00;;;46.60;33.00;;;;;;10073673;28;20014;-66
2022/08/25 16:42:21;;;;;;;4.45;1.88;;;46.30;32.70;;;;;;10039346;28;20111;-64
2022/08/25 16:47:13;;;;;;;3.38;2.25;;;46.70;32.30;;;;;;10039761;28;20076;-65
2022/08/25 16:55:11;;;;;;;3.63;2.65;;;46.90;32.10;;;;;;10047694;28;20029;-65
2022/08/25 16:57:17;;;;;;;2.33;1.85;;;46.50;32.30;;;;;;10058500;28;20240;-64
2022/08/25 17:02:08;;;;;;;2.78;2.25;;;45.30;33.20;;;;;;10072735;28;20135;-64
2022/08/25 17:06:59;;;;;;;2.25;2.05;;;45.60;33.30;;;;;;10072559;28;20224;-65
2022/08/25 17:11:55;;;;;;;3.70;3.40;;;45.00;33.50;;;;;;10053199;28;20106;-65
2022/08/25 17:16:47;;;;;;;2.53;2.20;;;44.80;33.90;;;;;;10042016;28;20141;-65
2022/08/25 17:21:41;;;;;;;2.58;2.17;;;43.90;34.20;;;;;;10056111;28;20079;-65
2022/08/25 17:26:31;;;;;;;2.58;2.28;;;41.00;36.10;;;;;;10056795;28;20037;-64
2022/08/25 17:31:22;;;;;;;2.72;2.40;;;38.40;37.30;;;;;;10065681;28;20033;-66
2022/08/25 17:36:13;;;;;;;4.28;2.30;;;36.90;38.30;;;;;;10062771;28;20207;-64
2022/08/25 17:41:06;;;;;;;3.33;1.90;;;35.80;39.20;;;;;;10071149;28;20591;-64
2022/08/25 17:45:57;;;;;;;3.33;2.20;;;35.10;39.90;;;;;;10050445;28;20623;-65
2022/08/25 17:50:49;;;;;;;4.13;2.15;;;34.70;40.30;;;;;;10050485;28;20327;-65
2022/08/25 17:55:41;;;;;;;3.05;2.20;;;34.50;40.50;;;;;;10041022;28;20044;-65
2022/08/25 18:00:32;;;;;;;4.88;2.40;;;34.30;40.90;;;;;;10065632;28;20292;-66
2022/08/25 18:05:24;;;;;;;4.93;2.38;;;34.10;41.40;;;;;;10076393;28;20143;-66
2022/08/25 18:10:15;;;;;;;3.72;2.92;;;33.90;41.90;;;;;;10053513;28;20068;-66
2022/08/25 18:15:06;;;;;;;2.92;2.28;;;33.70;42.30;;;;;;10060400;28;20534;-65
2022/08/25 18:19:57;;;;;;;4.95;2.22;;;33.60;42.60;;;;;;10037193;28;20056;-66
2022/08/25 18:24:48;;;;;;;2.75;2.30;;;33.50;43.00;;;;;;10055229;28;20017;-67
2022/08/25 18:29:40;;;;;;;5.93;2.65;;;33.40;43.40;;;;;;10065519;28;20050;-66
2022/08/25 18:34:31;;;;;;;4.15;2.50;;;33.30;43.80;;;;;;10050579;28;20010;-67
2022/08/25 18:44:30;;;;;;;3.30;2.38;;;33.10;44.50;;;;;;10059098;28;20398;-66
2022/08/25 18:49:21;;;;;;;4.32;2.95;;;32.80;45.10;;;;;;10059489;28;20045;-66
2022/08/25 18:54:13;;;;;;;4.18;2.70;;;32.60;45.50;;;;;;10058963;28;20021;-66
2022/08/25 18:59:06;;;;;;;5.78;3.13;;;32.50;45.90;;;;;;10054171;28;20040;-65
2022/08/25 19:03:56;;;;;;;4.53;3.25;;;32.40;46.20;;;;;;10053941;28;20017;-65
2022/08/25 19:08:47;;;;;;;4.38;2.72;;;32.30;46.50;;;;;;10066035;28;20045;-66
2022/08/25 19:13:39;;;;;;;4.45;3.63;;;32.20;46.70;;;;;;10058642;28;20181;-65
2022/08/25 19:18:30;;;;;;;5.47;3.60;;;32.20;46.90;;;;;;10030739;28;20410;-66
2022/08/25 19:23:20;;;;;;;5.30;3.63;;;32.10;47.30;;;;;;10058734;28;20095;-66
2022/08/25 19:28:11;;;;;;;4.07;2.80;;;32.00;47.40;;;;;;10057872;28;20465;-65
2022/08/25 19:33:03;;;;;;;3.65;3.05;;;31.90;47.60;;;;;;10048778;28;20038;-66
2022/08/25 19:37:54;;;;;;;3.92;2.67;;;31.90;47.90;;;;;;10058813;28;20097;-66
2022/08/25 19:42:45;;;;;;;4.78;3.42;;;31.70;48.20;;;;;;10057367;28;20042;-67
2022/08/25 19:47:36;;;;;;;6.97;3.15;;;31.60;48.30;;;;;;10056288;28;20060;-67
2022/08/25 19:52:27;;;;;;;6.88;3.50;;;31.50;48.50;;;;;;10054349;28;20029;-67
2022/08/25 19:57:18;;;;;;;4.53;3.30;;;31.40;49.50;;;;;;10051227;28;20029;-66
2022/08/25 20:02:13;;;;;;;3.60;2.75;;;31.40;49.60;;;;;;10054734;28;20399;-66
2022/08/25 20:07:04;;;;;;;3.67;3.25;;;31.30;49.10;;;;;;10072641;28;20045;-67
2022/08/25 20:11:55;;;;;;;4.18;2.60;;;31.20;49.00;;;;;;10064891;28;20033;-67
2022/08/25 20:16:46;;;;;;;4.22;2.80;;;31.00;49.20;;;;;;10063159;28;20506;-67
2022/08/25 20:21:42;;;;;;;3.72;2.97;;;31.10;49.10;;;;;;10054976;28;20043;-66
2022/08/25 20:26:33;;;;;;;3.50;2.55;;;31.00;49.40;;;;;;10069663;28;20032;-66
2022/08/25 20:31:23;;;;;;;6.47;3.47;;;30.90;49.60;;;;;;10051848;28;20112;-65
2022/08/25 20:36:14;;;;;;;6.82;3.45;;;30.80;49.70;;;;;;10039765;28;20055;-67
2022/08/25 20:41:08;;;;;;;5.10;3.00;;;30.70;49.80;;;;;;10060612;28;20040;-67
2022/08/25 20:46:00;;;;;;;5.15;2.97;;;30.60;49.90;;;;;;10062819;28;20017;-66
2022/08/25 20:50:51;;;;;;;5.03;3.30;;;30.70;49.90;;;;;;10060718;28;20128;-66
2022/08/25 20:55:42;;;;;;;4.03;2.80;;;30.70;49.90;;;;;;10056441;28;20129;-66
2022/08/25 21:00:32;;;;;;;5.07;3.08;;;30.60;50.20;;;;;;10070904;28;20064;-67
2022/08/25 21:05:23;;;;;;;4.25;3.05;;;30.60;50.20;;;;;;10057073;28;20192;-66
2022/08/25 21:10:14;;;;;;;5.22;3.33;;;30.60;50.30;;;;;;10063491;28;20033;-66
2022/08/25 21:15:06;;;;;;;3.55;2.65;;;30.50;50.30;;;;;;10065166;28;20034;-71
2022/08/25 21:19:57;;;;;;;5.68;2.95;;;30.50;50.30;;;;;;10058661;28;20434;-66
2022/08/25 21:24:50;;;;;;;4.47;3.53;;;30.30;50.60;;;;;;10045757;28;20028;-66
2022/08/25 21:29:40;;;;;;;6.25;4.20;;;30.30;50.70;;;;;;10082100;28;20252;-66
2022/08/25 21:34:31;;;;;;;4.75;3.30;;;30.20;50.90;;;;;;10073126;28;20335;-66
2022/08/25 21:39:24;;;;;;;6.15;3.80;;;30.10;51.20;;;;;;10075162;28;20033;-67
2022/08/25 21:44:16;;;;;;;6.20;3.30;;;30.00;51.40;;;;;;10060882;28;20033;-67
2022/08/25 21:49:07;;;;;;;3.20;2.65;;;30.00;51.50;;;;;;10065872;28;20033;-66
2022/08/25 21:54:10;;;;;;;6.20;3.53;;;29.90;51.90;;;;;;10061065;28;20017;-66
2022/08/25 21:59:01;;;;;;;8.98;3.38;;;29.80;52.90;;;;;;10055838;28;20555;-66
2022/08/25 22:03:52;;;;;;;6.95;2.85;;;29.60;52.30;;;;;;10077687;28;20028;-66
2022/08/25 22:08:42;;;;;;;6.15;2.90;;;29.50;52.40;;;;;;10059231;28;20099;-67
2022/08/25 22:13:35;;;;;;;5.30;2.97;;;29.60;52.40;;;;;;10059202;28;20137;-66
2022/08/25 22:18:27;;;;;;;3.88;2.70;;;29.60;52.40;;;;;;10056734;28;20105;-67
2022/08/25 22:23:18;;;;;;;5.53;3.20;;;29.60;52.50;;;;;;10052952;28;20026;-67
2022/08/25 22:28:09;;;;;;;5.22;3.42;;;29.40;52.80;;;;;;10081947;28;20124;-67
2022/08/25 22:33:00;;;;;;;6.32;3.55;;;29.20;53.00;;;;;;10082252;28;20172;-67
2022/08/25 22:37:51;;;;;;;5.75;3.30;;;29.10;53.00;;;;;;10069917;28;20029;-65
2022/08/25 22:42:42;;;;;;;5.32;3.67;;;29.10;53.30;;;;;;10045908;28;20424;-65
2022/08/25 22:47:32;;;;;;;5.82;3.58;;;28.80;53.30;;;;;;10064598;28;20605;-66
2022/08/25 22:52:23;;;;;;;6.85;4.50;;;28.90;53.50;;;;;;10058054;28;20055;-66
2022/08/25 22:57:14;;;;;;;7.03;3.55;;;28.60;53.90;;;;;;10057348;28;20053;-66
2022/08/25 23:02:04;;;;;;;5.65;2.95;;;28.50;54.20;;;;;;10058051;28;20405;-67
2022/08/25 23:06:55;;;;;;;7.10;3.78;;;28.40;54.50;;;;;;10043942;28;20595;-66
2022/08/25 23:11:46;;;;;;;3.38;2.75;;;28.50;54.40;;;;;;10061761;28;20029;-66
2022/08/25 23:16:41;;;;;;;4.45;3.45;;;28.50;54.50;;;;;;10060271;28;20033;-66
2022/08/25 23:26:41;;;;;;;5.40;3.17;;;28.00;55.30;;;;;;10051961;28;20056;-66
2022/08/25 23:31:32;;;;;;;5.30;3.28;;;28.10;55.20;;;;;;10042048;28;20051;-67
2022/08/25 23:36:23;;;;;;;3.05;2.70;;;28.10;55.30;;;;;;10056025;28;20100;-66
2022/08/25 23:41:17;;;;;;;4.15;2.90;;;28.20;55.40;;;;;;10065955;28;20040;-66
2022/08/25 23:46:08;;;;;;;6.63;2.67;;;28.20;55.60;;;;;;10052823;28;20022;-66
2022/08/25 23:51:02;;;;;;;4.70;3.15;;;28.10;55.60;;;;;;10059674;28;20033;-65
2022/08/25 23:55:54;;;;;;;4.27;2.97;;;28.20;55.70;;;;;;10059253;28;20523;-65
